Time;durP1;ratioP1;P1;durP2;ratioP2;P2;SDS_P1;SDS_P2;PMS_P1;PMS_P2;Temp;Humidity;BMP_temperature;BMP_pressure;BME280_temperature;BME280_humidity;BME280_pressure;Samples;Min_cycle;Max_cycle;Signal;HPM_P1;HPM_P2
2022/01/16 00:00:02;;;;;;;;;;;;;;;;;;5062439;28;19927;-70
2022/01/16 00:05:11;;;;;;;;;;;;;;;;;;5063041;28;19920;-70
2022/01/16 00:07:36;;;;;;;;;;;;;;;;;;5065378;28;19913;-68
2022/01/16 00:10:01;;;;;;;;;;;;;;;;;;5066397;28;19912;-68
2022/01/16 00:12:27;;;;;;;;;;;;;;;;;;5055770;28;20246;-70
2022/01/16 00:14:52;;;;;;;;;;;;;;;;;;5066001;28;19981;-70
2022/01/16 00:17:19;;;;;;;;;;;;;;;;;;5064546;28;19997;-68
2022/01/16 00:19:44;;;;;;;;;;;;;;;;;;5062922;28;20278;-68
2022/01/16 00:22:14;;;;;;;;;;;;;;;;;;5063236;28;20430;-68
2022/01/16 00:24:39;;;;;;;;;;;;;;;;;;5064413;28;20393;-68
2022/01/16 00:27:04;;;;;;;;;;;;;;;;;;5079184;28;19908;-68
2022/01/16 00:29:31;;;;;;;;;;;;;;;;;;5068060;28;20011;-68
2022/01/16 00:31:56;;;;;;;;;;;;;;;;;;5084482;28;20011;-68
2022/01/16 00:34:21;;;;;;;;;;;;;;;;;;5068883;28;19999;-68
2022/01/16 00:36:46;;;;;;;;;;;;;;;;;;5071828;28;19920;-68
2022/01/16 00:39:11;;;;;;;;;;;;;;;;;;5072349;28;19913;-68
2022/01/16 00:41:36;;;;;;;;;;;;;;;;;;5063291;28;19917;-68
2022/01/16 00:44:02;;;;;;;;;;;;;;;;;;5064561;28;19991;-68
2022/01/16 00:46:27;;;;;;;;;;;;;;;;;;5064120;28;20003;-68
2022/01/16 00:48:52;;;;;;;;;;;;;;;;;;5068522;28;20308;-68
2022/01/16 00:51:17;;;;;;;;;;;;;;;;;;5067913;28;19917;-68
2022/01/16 00:53:43;;;;;;;;;;;;;;;;;;5062961;28;19916;-68
2022/01/16 00:56:08;;;;;;;;;;;;;;;;;;5071561;28;19912;-68
2022/01/16 00:58:33;;;;;;;;;;;;;;;;;;5066828;28;20355;-68
2022/01/16 01:00:58;;;;;;;;;;;;;;;;;;5064745;28;19918;-68
2022/01/16 01:03:25;;;;;;;;;;;;;;;;;;5062546;28;19924;-68
2022/01/16 01:05:50;;;;;;;;;;;;;;;;;;5080113;28;19912;-68
2022/01/16 01:08:15;;;;;;;;;;;;;;;;;;5069304;28;20019;-68
2022/01/16 01:10:43;;;;;;;;;;;;;;;;;;5060812;28;19960;-68
2022/01/16 01:15:41;;;;;;;;;;;;;;;;;;5065731;28;19916;-68
2022/01/16 01:18:06;;;;;;;;;;;;;;;;;;5052234;28;19950;-68
2022/01/16 01:20:31;;;;;;;;;;;;;;;;;;5049242;28;19916;-68
2022/01/16 01:22:56;;;;;;;;;;;;;;;;;;5053383;28;20090;-68
2022/01/16 01:25:22;;;;;;;;;;;;;;;;;;5054956;28;20053;-68
2022/01/16 01:27:47;;;;;;;;;;;;;;;;;;5053895;28;19912;-68
2022/01/16 01:30:12;;;;;;;;;;;;;;;;;;5052796;28;20305;-68
2022/01/16 01:32:38;;;;;;;;;;;;;;;;;;5047443;28;19925;-68
2022/01/16 01:35:03;;;;;;;;;;;;;;;;;;5050918;28;19913;-69
2022/01/16 01:37:28;;;;;;;;;;;;;;;;;;5056455;28;20302;-68
2022/01/16 01:39:53;;;;;;;;;;;;;;;;;;5046779;28;20559;-68
2022/01/16 01:42:18;;;;;;;;;;;;;;;;;;5052567;28;19944;-68
2022/01/16 01:52:55;;;;;;;;;;;;;;;;;;5053308;28;19979;-68
2022/01/16 01:55:20;;;;;;;;;;;;;;;;;;5052990;28;19943;-68
2022/01/16 01:57:46;;;;;;;;;;;;;;;;;;5059075;28;19913;-68
2022/01/16 02:00:17;;;;;;;;;;;;;;;;;;5052338;28;19913;-68
2022/01/16 02:02:59;;;;;;;;;;;;;;;;;;5053970;22;20019;-67
2022/01/16 02:05:24;;;;;;;;;;;;;;;;;;5047888;28;19925;-67
2022/01/16 02:07:49;;;;;;;;;;;;;;;;;;5049213;28;20077;-67
2022/01/16 02:10:14;;;;;;;;;;;;;;;;;;5047600;28;19970;-67
2022/01/16 02:12:43;;;;;;;;;;;;;;;;;;5048676;28;19912;-67
2022/01/16 02:15:33;;;;;;;;;;;;;;;;;;5056397;28;19948;-67
2022/01/16 02:29:58;;;;;;;;;;;;;;;;;;5017409;28;20497;-67
2022/01/16 02:31:58;;;;;;;;;;;;;;;;;;5015188;28;20963;-67
2022/01/16 02:36:59;;;;;;;;;;;;;;;;;;5016967;28;19976;-67
2022/01/16 02:39:24;;;;;;;;;;;;;;;;;;5013539;28;20164;-67
2022/01/16 02:41:52;;;;;;;;;;;;;;;;;;5017603;28;19913;-67
2022/01/16 02:44:22;;;;;;;;;;;;;;;;;;5016529;28;20003;-67
2022/01/16 02:46:47;;;;;;;;;;;;;;;;;;5016960;28;19913;-67
2022/01/16 02:49:12;;;;;;;;;;;;;;;;;;5016873;28;19913;-67
2022/01/16 02:51:38;;;;;;;;;;;;;;;;;;5016834;28;19917;-67
2022/01/16 02:54:03;;;;;;;;;;;;;;;;;;5016753;28;19913;-67
2022/01/16 02:56:28;;;;;;;;;;;;;;;;;;5016624;28;19921;-67
2022/01/16 02:58:53;;;;;;;;;;;;;;;;;;5017111;28;19992;-67
2022/01/16 03:01:18;;;;;;;;;;;;;;;;;;5016902;28;19975;-67
2022/01/16 03:03:43;;;;;;;;;;;;;;;;;;5021357;28;19921;-67
2022/01/16 03:06:08;;;;;;;;;;;;;;;;;;5050318;28;20623;-67
2022/01/16 03:08:34;;;;;;;;;;;;;;;;;;5048305;28;19916;-67
2022/01/16 03:13:31;;;;;;;;;;;;;;;;;;5051493;28;19974;-67
2022/01/16 03:15:56;;;;;;;;;;;;;;;;;;5056971;28;19970;-67
2022/01/16 03:23:31;;;;;;;;;;;;;;;;;;5044077;28;19919;-67
2022/01/16 03:25:56;;;;;;;;;;;;;;;;;;5044876;28;19947;-67
2022/01/16 03:28:21;;;;;;;;;;;;;;;;;;5050304;28;19921;-67
2022/01/16 03:30:46;;;;;;;;;;;;;;;;;;5054700;28;20143;-67
2022/01/16 03:33:11;;;;;;;;;;;;;;;;;;5055282;28;19912;-67
2022/01/16 03:35:36;;;;;;;;;;;;;;;;;;5052484;28;20432;-67
2022/01/16 03:38:01;;;;;;;;;;;;;;;;;;5048283;28;20007;-66
2022/01/16 03:40:27;;;;;;;;;;;;;;;;;;5057239;28;19919;-66
2022/01/16 03:42:52;;;;;;;;;;;;;;;;;;5052885;28;19917;-66
2022/01/16 03:45:17;;;;;;;;;;;;;;;;;;5049327;28;19913;-66
2022/01/16 03:47:42;;;;;;;;;;;;;;;;;;5054139;28;19935;-66
2022/01/16 03:50:07;;;;;;;;;;;;;;;;;;5047553;28;19921;-66
2022/01/16 03:52:32;;;;;;;;;;;;;;;;;;5051977;28;19978;-66
2022/01/16 03:54:57;;;;;;;;;;;;;;;;;;5046436;28;19963;-66
2022/01/16 03:57:22;;;;;;;;;;;;;;;;;;5047790;28;19924;-66
2022/01/16 03:59:48;;;;;;;;;;;;;;;;;;5048150;28;19964;-66
2022/01/16 04:02:13;;;;;;;;;;;;;;;;;;5047020;28;19928;-66
2022/01/16 04:04:38;;;;;;;;;;;;;;;;;;5047031;28;19932;-66
2022/01/16 04:07:03;;;;;;;;;;;;;;;;;;5045708;28;19916;-66
2022/01/16 04:09:28;;;;;;;;;;;;;;;;;;5046048;28;19912;-66
2022/01/16 04:11:56;;;;;;;;;;;;;;;;;;5042090;28;19921;-66
2022/01/16 04:14:26;;;;;;;;;;;;;;;;;;5046914;28;19916;-66
2022/01/16 04:16:52;;;;;;;;;;;;;;;;;;5049223;28;20352;-66
2022/01/16 04:19:17;;;;;;;;;;;;;;;;;;5043348;28;19924;-66
2022/01/16 04:21:42;;;;;;;;;;;;;;;;;;5054229;28;19955;-66
2022/01/16 04:24:07;;;;;;;;;;;;;;;;;;5043478;28;19913;-66
2022/01/16 04:26:32;;;;;;;;;;;;;;;;;;5044387;28;19998;-66
2022/01/16 04:28:57;;;;;;;;;;;;;;;;;;5043198;28;19952;-66
2022/01/16 04:31:22;;;;;;;;;;;;;;;;;;5045739;28;19939;-66
2022/01/16 04:33:47;;;;;;;;;;;;;;;;;;5044128;28;19925;-66
2022/01/16 04:36:13;;;;;;;;;;;;;;;;;;5057657;28;19923;-66
2022/01/16 04:38:44;;;;;;;;;;;;;;;;;;5043955;28;20384;-66
2022/01/16 04:43:53;;;;;;;;;;;;;;;;;;5056663;28;20339;-66
2022/01/16 04:46:18;;;;;;;;;;;;;;;;;;5047334;28;20384;-66
2022/01/16 04:48:43;;;;;;;;;;;;;;;;;;5051959;28;20430;-66
2022/01/16 04:51:08;;;;;;;;;;;;;;;;;;5055288;28;20754;-66
2022/01/16 04:53:33;;;;;;;;;;;;;;;;;;5049647;28;19912;-66
2022/01/16 04:55:59;;;;;;;;;;;;;;;;;;5054838;28;19912;-66
2022/01/16 04:58:24;;;;;;;;;;;;;;;;;;5054584;28;19913;-66
2022/01/16 05:00:49;;;;;;;;;;;;;;;;;;5053854;28;19921;-66
2022/01/16 05:03:14;;;;;;;;;;;;;;;;;;5054650;28;19924;-66
2022/01/16 05:05:39;;;;;;;;;;;;;;;;;;5052798;28;19913;-66
2022/01/16 05:08:04;;;;;;;;;;;;;;;;;;5051358;28;20003;-66
2022/01/16 05:10:30;;;;;;;;;;;;;;;;;;5056693;28;20006;-66
2022/01/16 05:13:04;;;;;;;;;;;;;;;;;;5058260;28;20327;-66
2022/01/16 05:18:30;;;;;;;;;;;;;;;;;;4998994;28;20317;-66
2022/01/16 05:20:55;;;;;;;;;;;;;;;;;;4998977;28;20544;-66
2022/01/16 05:23:20;;;;;;;;;;;;;;;;;;4998484;28;20625;-66
2022/01/16 05:25:45;;;;;;;;;;;;;;;;;;4999880;28;20588;-66
2022/01/16 05:28:10;;;;;;;;;;;;;;;;;;4998982;28;20413;-66
2022/01/16 05:30:36;;;;;;;;;;;;;;;;;;5000744;28;20432;-66
2022/01/16 05:33:01;;;;;;;;;;;;;;;;;;4998619;28;20512;-66
2022/01/16 05:35:26;;;;;;;;;;;;;;;;;;4999233;28;19917;-66
2022/01/16 05:37:51;;;;;;;;;;;;;;;;;;4999062;28;19935;-66
2022/01/16 05:40:16;;;;;;;;;;;;;;;;;;4998747;28;20030;-66
2022/01/16 05:42:41;;;;;;;;;;;;;;;;;;4999943;28;19980;-66
2022/01/16 05:45:06;;;;;;;;;;;;;;;;;;4998565;28;20400;-66
2022/01/16 05:47:31;;;;;;;;;;;;;;;;;;4998368;28;20537;-66
2022/01/16 05:49:57;;;;;;;;;;;;;;;;;;4998627;28;19929;-66
2022/01/16 05:52:22;;;;;;;;;;;;;;;;;;5025062;28;19917;-66
2022/01/16 05:54:47;;;;;;;;;;;;;;;;;;5057965;28;19913;-66
2022/01/16 05:57:12;;;;;;;;;;;;;;;;;;5049020;28;19931;-67
2022/01/16 05:59:37;;;;;;;;;;;;;;;;;;5054078;28;19927;-67
2022/01/16 06:02:02;;;;;;;;;;;;;;;;;;5050299;28;19964;-66
2022/01/16 06:04:28;;;;;;;;;;;;;;;;;;5056347;28;20359;-66
2022/01/16 06:06:53;;;;;;;;;;;;;;;;;;5049699;28;20302;-66
2022/01/16 06:09:18;;;;;;;;;;;;;;;;;;5056217;28;20539;-67
2022/01/16 06:11:43;;;;;;;;;;;;;;;;;;5050101;28;19916;-67
2022/01/16 06:14:08;;;;;;;;;;;;;;;;;;5053301;28;20369;-67
2022/01/16 06:16:35;;;;;;;;;;;;;;;;;;5051201;28;19919;-67
2022/01/16 06:19:00;;;;;;;;;;;;;;;;;;5047085;28;19913;-68
2022/01/16 06:21:25;;;;;;;;;;;;;;;;;;5051017;28;19977;-67
2022/01/16 06:23:50;;;;;;;;;;;;;;;;;;5049998;28;20392;-67
2022/01/16 06:26:15;;;;;;;;;;;;;;;;;;5050264;28;19913;-67
2022/01/16 06:28:41;;;;;;;;;;;;;;;;;;5049521;28;19958;-67
2022/01/16 06:31:06;;;;;;;;;;;;;;;;;;5057702;28;19920;-67
2022/01/16 06:33:31;;;;;;;;;;;;;;;;;;5058132;28;19912;-67
2022/01/16 06:35:56;;;;;;;;;;;;;;;;;;5054090;28;19920;-67
2022/01/16 06:38:21;;;;;;;;;;;;;;;;;;5052862;28;19921;-67
2022/01/16 06:40:46;;;;;;;;;;;;;;;;;;5057807;28;19952;-67
2022/01/16 06:43:11;;;;;;;;;;;;;;;;;;5052391;28;19920;-67
2022/01/16 06:45:36;;;;;;;;;;;;;;;;;;5050793;28;19970;-67
2022/01/16 06:48:02;;;;;;;;;;;;;;;;;;5051439;28;19913;-67
2022/01/16 06:50:27;;;;;;;;;;;;;;;;;;5052316;28;20013;-68
2022/01/16 06:52:52;;;;;;;;;;;;;;;;;;5053428;28;19967;-68
2022/01/16 06:55:17;;;;;;;;;;;;;;;;;;5050082;28;19912;-66
2022/01/16 06:57:42;;;;;;;;;;;;;;;;;;5045383;28;19913;-67
2022/01/16 07:00:07;;;;;;;;;;;;;;;;;;5051600;28;19913;-68
2022/01/16 07:02:32;;;;;;;;;;;;;;;;;;5050343;28;19967;-68
2022/01/16 07:04:57;;;;;;;;;;;;;;;;;;5048618;28;19913;-68
2022/01/16 07:07:23;;;;;;;;;;;;;;;;;;5047663;28;20018;-67
2022/01/16 07:09:48;;;;;;;;;;;;;;;;;;5050704;28;20442;-68
2022/01/16 07:12:13;;;;;;;;;;;;;;;;;;5046075;28;19956;-68
2022/01/16 07:14:38;;;;;;;;;;;;;;;;;;5051961;28;19912;-68
2022/01/16 07:17:03;;;;;;;;;;;;;;;;;;5054298;28;19923;-67
2022/01/16 07:19:28;;;;;;;;;;;;;;;;;;5057889;28;20292;-68
2022/01/16 07:21:54;;;;;;;;;;;;;;;;;;5046815;28;19913;-68
2022/01/16 07:24:19;;;;;;;;;;;;;;;;;;5051118;28;20475;-65
2022/01/16 07:26:45;;;;;;;;;;;;;;;;;;5050801;28;19956;-65
2022/01/16 07:29:10;;;;;;;;;;;;;;;;;;5053445;28;19928;-68
2022/01/16 07:31:38;;;;;;;;;;;;;;;;;;5049998;28;19921;-68
2022/01/16 07:34:03;;;;;;;;;;;;;;;;;;5052283;28;19924;-68
2022/01/16 07:36:28;;;;;;;;;;;;;;;;;;5050703;28;20583;-68
2022/01/16 07:38:53;;;;;;;;;;;;;;;;;;5054459;28;19912;-68
2022/01/16 07:41:18;;;;;;;;;;;;;;;;;;5050211;28;19923;-68
2022/01/16 07:43:44;;;;;;;;;;;;;;;;;;5054649;28;19917;-68
2022/01/16 07:46:09;;;;;;;;;;;;;;;;;;5055836;28;19912;-68
2022/01/16 07:48:34;;;;;;;;;;;;;;;;;;5056118;28;19916;-68
2022/01/16 07:50:59;;;;;;;;;;;;;;;;;;5050865;28;19924;-68
2022/01/16 07:53:24;;;;;;;;;;;;;;;;;;5053450;28;20011;-68
2022/01/16 07:55:49;;;;;;;;;;;;;;;;;;5055251;28;19916;-68
2022/01/16 07:58:14;;;;;;;;;;;;;;;;;;5046481;28;19913;-68
2022/01/16 08:00:39;;;;;;;;;;;;;;;;;;5047880;28;19991;-68
2022/01/16 08:03:05;;;;;;;;;;;;;;;;;;5048764;28;20467;-67
2022/01/16 08:05:30;;;;;;;;;;;;;;;;;;5045919;28;19916;-68
2022/01/16 08:07:55;;;;;;;;;;;;;;;;;;5051511;28;19928;-68
2022/01/16 08:10:20;;;;;;;;;;;;;;;;;;5054633;28;20577;-68
2022/01/16 08:12:45;;;;;;;;;;;;;;;;;;5053824;28;19917;-68
2022/01/16 08:15:10;;;;;;;;;;;;;;;;;;5046043;28;19974;-68
2022/01/16 08:17:36;;;;;;;;;;;;;;;;;;5051203;28;19978;-68
2022/01/16 08:20:01;;;;;;;;;;;;;;;;;;5051434;28;19967;-68
2022/01/16 08:22:26;;;;;;;;;;;;;;;;;;5049128;28;20324;-68
2022/01/16 08:24:51;;;;;;;;;;;;;;;;;;5054835;28;19919;-68
2022/01/16 08:27:16;;;;;;;;;;;;;;;;;;5052468;28;19912;-68
2022/01/16 08:29:41;;;;;;;;;;;;;;;;;;5056954;28;19912;-68
2022/01/16 08:32:07;;;;;;;;;;;;;;;;;;5057931;28;19946;-68
2022/01/16 08:34:32;;;;;;;;;;;;;;;;;;5051652;28;19919;-68
2022/01/16 08:36:57;;;;;;;;;;;;;;;;;;5054463;28;19913;-68
2022/01/16 08:39:23;;;;;;;;;;;;;;;;;;5057441;28;19917;-68
2022/01/16 08:41:48;;;;;;;;;;;;;;;;;;5049305;28;19938;-68
2022/01/16 08:44:13;;;;;;;;;;;;;;;;;;5057612;28;20679;-68
2022/01/16 08:46:38;;;;;;;;;;;;;;;;;;5049155;28;19951;-68
2022/01/16 08:49:04;;;;;;;;;;;;;;;;;;5054807;28;19921;-68
2022/01/16 08:51:29;;;;;;;;;;;;;;;;;;5059354;28;19916;-68
2022/01/16 08:53:54;;;;;;;;;;;;;;;;;;5060181;28;19959;-68
2022/01/16 08:56:20;;;;;;;;;;;;;;;;;;5056038;28;19917;-68
2022/01/16 08:58:45;;;;;;;;;;;;;;;;;;5051755;28;19923;-68
2022/01/16 09:01:10;;;;;;;;;;;;;;;;;;5059054;28;19917;-68
2022/01/16 09:03:37;;;;;;;;;;;;;;;;;;5052301;28;20183;-68
2022/01/16 09:06:03;;;;;;;;;;;;;;;;;;5051481;28;19920;-68
2022/01/16 09:08:28;;;;;;;;;;;;;;;;;;5058475;28;20306;-68
2022/01/16 09:10:53;;;;;;;;;;;;;;;;;;5058333;28;19921;-68
2022/01/16 09:13:18;;;;;;;;;;;;;;;;;;5057050;28;20402;-68
2022/01/16 09:15:43;;;;;;;;;;;;;;;;;;5056240;28;19913;-68
2022/01/16 09:18:09;;;;;;;;;;;;;;;;;;5052350;28;19996;-68
2022/01/16 09:20:34;;;;;;;;;;;;;;;;;;5057535;28;19916;-68
2022/01/16 09:22:59;;;;;;;;;;;;;;;;;;5055400;28;19956;-68
2022/01/16 09:25:24;;;;;;;;;;;;;;;;;;5059042;28;19920;-68
2022/01/16 09:27:49;;;;;;;;;;;;;;;;;;5046581;28;19935;-68
2022/01/16 09:30:14;;;;;;;;;;;;;;;;;;5051448;28;20057;-67
2022/01/16 09:32:39;;;;;;;;;;;;;;;;;;5059640;28;19951;-68
2022/01/16 09:35:04;;;;;;;;;;;;;;;;;;5055420;28;20384;-68
2022/01/16 09:37:30;;;;;;;;;;;;;;;;;;5053346;28;19913;-67
2022/01/16 09:39:55;;;;;;;;;;;;;;;;;;5049822;28;19925;-68
2022/01/16 09:42:20;;;;;;;;;;;;;;;;;;5058040;28;19912;-68
2022/01/16 09:44:45;;;;;;;;;;;;;;;;;;5054756;28;19920;-68
2022/01/16 09:47:10;;;;;;;;;;;;;;;;;;5055893;28;20459;-68
2022/01/16 09:49:35;;;;;;;;;;;;;;;;;;5047194;28;19956;-68
2022/01/16 09:52:00;;;;;;;;;;;;;;;;;;5055471;28;20276;-68
2022/01/16 09:54:26;;;;;;;;;;;;;;;;;;5047573;28;19913;-67
2022/01/16 09:56:51;;;;;;;;;;;;;;;;;;5050868;28;19921;-67
2022/01/16 09:59:16;;;;;;;;;;;;;;;;;;5048619;28;19913;-68
2022/01/16 10:01:41;;;;;;;;;;;;;;;;;;5046985;28;19992;-67
2022/01/16 10:04:06;;;;;;;;;;;;;;;;;;5055063;28;19959;-67
2022/01/16 10:06:31;;;;;;;;;;;;;;;;;;5058089;28;19917;-67
2022/01/16 10:08:57;;;;;;;;;;;;;;;;;;5051095;28;20589;-68
2022/01/16 10:11:22;;;;;;;;;;;;;;;;;;5054666;28;19924;-67
2022/01/16 10:13:56;;;;;;;;;;;;;;;;;;5052646;28;19927;-67
2022/01/16 10:16:21;;;;;;;;;;;;;;;;;;5060143;28;19990;-68
2022/01/16 10:18:46;;;;;;;;;;;;;;;;;;5059301;28;19920;-68
2022/01/16 10:21:11;;;;;;;;;;;;;;;;;;5059944;28;20387;-68
2022/01/16 10:23:36;;;;;;;;;;;;;;;;;;5058005;28;19931;-68
2022/01/16 10:26:01;;;;;;;;;;;;;;;;;;5057372;28;19920;-68
2022/01/16 10:28:27;;;;;;;;;;;;;;;;;;5057899;28;19917;-68
2022/01/16 10:30:52;;;;;;;;;;;;;;;;;;5056807;28;19928;-68
2022/01/16 10:33:19;;;;;;;;;;;;;;;;;;5058916;28;19955;-67
2022/01/16 10:35:44;;;;;;;;;;;;;;;;;;5059478;28;20344;-67
2022/01/16 10:38:09;;;;;;;;;;;;;;;;;;5040652;28;20027;-67
2022/01/16 10:40:35;;;;;;;;;;;;;;;;;;5058176;28;20023;-67
2022/01/16 10:43:13;;;;;;;;;;;;;;;;;;5058638;28;20360;-67
2022/01/16 10:45:38;;;;;;;;;;;;;;;;;;5057367;28;19920;-67
2022/01/16 10:48:03;;;;;;;;;;;;;;;;;;5058896;28;19917;-67
2022/01/16 10:50:28;;;;;;;;;;;;;;;;;;5055659;28;20471;-67
2022/01/16 10:52:53;;;;;;;;;;;;;;;;;;5058240;28;19963;-67
2022/01/16 10:55:18;;;;;;;;;;;;;;;;;;5057684;28;19974;-67
2022/01/16 10:57:45;;;;;;;;;;;;;;;;;;5058652;28;19920;-67
2022/01/16 11:00:10;;;;;;;;;;;;;;;;;;5058774;28;19920;-67
2022/01/16 11:02:35;;;;;;;;;;;;;;;;;;5057505;28;19916;-68
2022/01/16 11:05:00;;;;;;;;;;;;;;;;;;5058483;28;19917;-67
2022/01/16 11:07:26;;;;;;;;;;;;;;;;;;5058800;28;20022;-68
2022/01/16 11:09:51;;;;;;;;;;;;;;;;;;5052461;28;19931;-67
2022/01/16 11:12:18;;;;;;;;;;;;;;;;;;5057290;28;21444;-67
2022/01/16 11:14:43;;;;;;;;;;;;;;;;;;5055848;28;19924;-67
2022/01/16 11:17:08;;;;;;;;;;;;;;;;;;5058302;28;20004;-67
2022/01/16 11:19:35;;;;;;;;;;;;;;;;;;5058532;28;20426;-67
2022/01/16 11:22:04;;;;;;;;;;;;;;;;;;5058249;28;19917;-67
2022/01/16 11:24:47;;;;;;;;;;;;;;;;;;5057894;28;19916;-67
2022/01/16 11:27:12;;;;;;;;;;;;;;;;;;5058463;28;19921;-67
2022/01/16 11:29:37;;;;;;;;;;;;;;;;;;5057554;28;19916;-68
2022/01/16 11:32:02;;;;;;;;;;;;;;;;;;5057301;28;19920;-68
2022/01/16 11:34:29;;;;;;;;;;;;;;;;;;5056417;28;19920;-67
2022/01/16 11:36:54;;;;;;;;;;;;;;;;;;5058697;28;19916;-68
2022/01/16 11:39:20;;;;;;;;;;;;;;;;;;5058438;28;19935;-68
2022/01/16 11:41:46;;;;;;;;;;;;;;;;;;5057307;28;19924;-68
2022/01/16 11:44:11;;;;;;;;;;;;;;;;;;5054651;28;19958;-68
2022/01/16 11:46:36;;;;;;;;;;;;;;;;;;5058846;28;19916;-68
2022/01/16 11:49:02;;;;;;;;;;;;;;;;;;5057403;28;19928;-68
2022/01/16 11:51:27;;;;;;;;;;;;;;;;;;5053158;28;19920;-68
2022/01/16 11:53:52;;;;;;;;;;;;;;;;;;5055646;28;19917;-68
2022/01/16 11:56:17;;;;;;;;;;;;;;;;;;5061586;28;19923;-68
2022/01/16 11:58:42;;;;;;;;;;;;;;;;;;5057689;28;19971;-68
2022/01/16 12:01:07;;;;;;;;;;;;;;;;;;5062539;28;19924;-68
2022/01/16 12:03:32;;;;;;;;;;;;;;;;;;5057469;28;19921;-68
2022/01/16 12:05:57;;;;;;;;;;;;;;;;;;5061019;28;19928;-69
2022/01/16 12:08:24;;;;;;;;;;;;;;;;;;5060365;28;20639;-68
2022/01/16 12:10:50;;;;;;;;;;;;;;;;;;5057002;28;19971;-68
2022/01/16 12:13:15;;;;;;;;;;;;;;;;;;5056831;28;19924;-68
2022/01/16 12:15:40;;;;;;;;;;;;;;;;;;5044031;28;19946;-68
2022/01/16 12:18:06;;;;;;;;;;;;;;;;;;5061590;28;19924;-69
2022/01/16 12:20:31;;;;;;;;;;;;;;;;;;5058991;28;20007;-69
2022/01/16 12:22:56;;;;;;;;;;;;;;;;;;5053394;28;19916;-69
2022/01/16 12:25:21;;;;;;;;;;;;;;;;;;5054062;28;20016;-69
2022/01/16 12:27:46;;;;;;;;;;;;;;;;;;5056749;28;19916;-68
2022/01/16 12:30:11;;;;;;;;;;;;;;;;;;5058480;28;20331;-68
2022/01/16 12:32:36;;;;;;;;;;;;;;;;;;5052347;28;19920;-69
2022/01/16 12:35:02;;;;;;;;;;;;;;;;;;5058607;28;19940;-69
2022/01/16 12:37:27;;;;;;;;;;;;;;;;;;5056212;28;20004;-69
2022/01/16 12:39:52;;;;;;;;;;;;;;;;;;5055681;28;19917;-69
2022/01/16 12:42:18;;;;;;;;;;;;;;;;;;5058121;28;19917;-69
2022/01/16 12:44:43;;;;;;;;;;;;;;;;;;5058794;28;19916;-68
2022/01/16 12:47:08;;;;;;;;;;;;;;;;;;5061476;28;20586;-68
2022/01/16 12:49:33;;;;;;;;;;;;;;;;;;5060667;28;19921;-68
2022/01/16 12:51:58;;;;;;;;;;;;;;;;;;5060688;28;19931;-68
2022/01/16 12:54:25;;;;;;;;;;;;;;;;;;5056366;28;19928;-68
2022/01/16 12:56:50;;;;;;;;;;;;;;;;;;5058538;28;19917;-68
2022/01/16 12:59:15;;;;;;;;;;;;;;;;;;5060306;28;20382;-68
2022/01/16 13:01:42;;;;;;;;;;;;;;;;;;5053486;28;19923;-68
2022/01/16 13:04:07;;;;;;;;;;;;;;;;;;5055595;28;19921;-68
2022/01/16 13:06:34;;;;;;;;;;;;;;;;;;5052816;28;20018;-68
2022/01/16 13:08:59;;;;;;;;;;;;;;;;;;5055100;28;20729;-68
2022/01/16 13:11:24;;;;;;;;;;;;;;;;;;5059794;28;19920;-68
2022/01/16 13:13:49;;;;;;;;;;;;;;;;;;5056076;28;19924;-68
2022/01/16 13:16:15;;;;;;;;;;;;;;;;;;5053990;28;19931;-67
2022/01/16 13:18:40;;;;;;;;;;;;;;;;;;5054196;28;20296;-68
2022/01/16 13:21:07;;;;;;;;;;;;;;;;;;5061904;28;20379;-68
2022/01/16 13:23:32;;;;;;;;;;;;;;;;;;5057179;28;19930;-68
2022/01/16 13:25:57;;;;;;;;;;;;;;;;;;5057363;28;19917;-68
2022/01/16 13:28:22;;;;;;;;;;;;;;;;;;5059807;28;19986;-68
2022/01/16 13:30:47;;;;;;;;;;;;;;;;;;5059469;28;19965;-68
2022/01/16 13:33:12;;;;;;;;;;;;;;;;;;5058774;28;20412;-68
2022/01/16 13:35:38;;;;;;;;;;;;;;;;;;5058881;28;20395;-68
2022/01/16 13:38:03;;;;;;;;;;;;;;;;;;5055009;28;19917;-67
2022/01/16 13:40:30;;;;;;;;;;;;;;;;;;5058922;28;19917;-67
2022/01/16 13:45:23;;;;;;;;;;;;;;;;;;5060212;28;20597;-67
2022/01/16 13:47:48;;;;;;;;;;;;;;;;;;5052449;28;19920;-68
2022/01/16 13:50:13;;;;;;;;;;;;;;;;;;5055793;28;19923;-68
2022/01/16 13:52:38;;;;;;;;;;;;;;;;;;5050458;28;19975;-67
2022/01/16 13:55:04;;;;;;;;;;;;;;;;;;5058931;28;19916;-67
2022/01/16 13:57:29;;;;;;;;;;;;;;;;;;5059973;28;19922;-68
2022/01/16 13:59:54;;;;;;;;;;;;;;;;;;5058657;28;19931;-67
2022/01/16 14:02:19;;;;;;;;;;;;;;;;;;5057972;28;20015;-68
2022/01/16 14:04:45;;;;;;;;;;;;;;;;;;5054145;28;19962;-68
2022/01/16 14:07:10;;;;;;;;;;;;;;;;;;5056107;28;19917;-67
2022/01/16 14:09:35;;;;;;;;;;;;;;;;;;5050533;28;19967;-66
2022/01/16 14:12:00;;;;;;;;;;;;;;;;;;5058582;28;20035;-66
2022/01/16 14:14:26;;;;;;;;;;;;;;;;;;5057070;28;19959;-68
2022/01/16 14:22:10;;;;;;;;;;;;;;;;;;5022242;28;19917;-68
2022/01/16 14:24:35;;;;;;;;;;;;;;;;;;5016262;28;19953;-67
2022/01/16 14:27:00;;;;;;;;;;;;;;;;;;5013767;28;19956;-67
2022/01/16 14:29:25;;;;;;;;;;;;;;;;;;5015006;28;20003;-68
2022/01/16 14:31:50;;;;;;;;;;;;;;;;;;5015420;28;20049;-67
2022/01/16 14:34:16;;;;;;;;;;;;;;;;;;5015789;28;20854;-67
2022/01/16 14:36:42;;;;;;;;;;;;;;;;;;5012982;28;20109;-67
2022/01/16 14:39:07;;;;;;;;;;;;;;;;;;5015077;28;19960;-67
2022/01/16 14:41:33;;;;;;;;;;;;;;;;;;5014022;28;19924;-67
2022/01/16 14:44:00;;;;;;;;;;;;;;;;;;5010528;28;19924;-67
2022/01/16 14:46:27;;;;;;;;;;;;;;;;;;5015946;28;19921;-67
2022/01/16 14:48:52;;;;;;;;;;;;;;;;;;5014331;28;19917;-67
2022/01/16 14:51:18;;;;;;;;;;;;;;;;;;5005950;28;19932;-67
2022/01/16 14:53:43;;;;;;;;;;;;;;;;;;5012102;28;20843;-67
2022/01/16 14:56:08;;;;;;;;;;;;;;;;;;5021398;28;20434;-68
2022/01/16 14:58:33;;;;;;;;;;;;;;;;;;5056191;28;20421;-67
2022/01/16 15:00:58;;;;;;;;;;;;;;;;;;5057426;28;19916;-67
2022/01/16 15:03:23;;;;;;;;;;;;;;;;;;5058047;28;19935;-68
2022/01/16 15:05:48;;;;;;;;;;;;;;;;;;5059532;28;20307;-67
2022/01/16 15:08:13;;;;;;;;;;;;;;;;;;5058286;28;19916;-68
2022/01/16 15:10:39;;;;;;;;;;;;;;;;;;5063941;28;19924;-67
2022/01/16 15:13:04;;;;;;;;;;;;;;;;;;5057729;28;19942;-68
2022/01/16 15:15:29;;;;;;;;;;;;;;;;;;5056614;28;20375;-68
2022/01/16 15:17:57;;;;;;;;;;;;;;;;;;5057570;28;19920;-69
2022/01/16 15:20:28;;;;;;;;;;;;;;;;;;5057379;28;19923;-68
2022/01/16 15:22:55;;;;;;;;;;;;;;;;;;5062320;28;20015;-68
2022/01/16 15:25:21;;;;;;;;;;;;;;;;;;5058418;28;19927;-67
2022/01/16 15:27:46;;;;;;;;;;;;;;;;;;5058497;28;20695;-68
2022/01/16 15:30:13;;;;;;;;;;;;;;;;;;5057203;28;19931;-68
2022/01/16 15:32:39;;;;;;;;;;;;;;;;;;5056283;28;20407;-68
2022/01/16 15:35:04;;;;;;;;;;;;;;;;;;5053479;28;19921;-68
2022/01/16 15:37:30;;;;;;;;;;;;;;;;;;5055710;28;19998;-68
2022/01/16 15:39:55;;;;;;;;;;;;;;;;;;5052542;28;19929;-68
2022/01/16 15:42:21;;;;;;;;;;;;;;;;;;5054050;28;19920;-68
2022/01/16 15:44:46;;;;;;;;;;;;;;;;;;5052375;28;19920;-68
2022/01/16 15:47:11;;;;;;;;;;;;;;;;;;5055535;28;19917;-68
2022/01/16 15:49:36;;;;;;;;;;;;;;;;;;5053849;28;19916;-68
2022/01/16 15:52:01;;;;;;;;;;;;;;;;;;5054075;28;19921;-68
2022/01/16 15:54:26;;;;;;;;;;;;;;;;;;5055201;28;19960;-68
2022/01/16 15:56:51;;;;;;;;;;;;;;;;;;5057965;28;19920;-68
2022/01/16 15:59:17;;;;;;;;;;;;;;;;;;5053442;28;19927;-68
2022/01/16 16:01:42;;;;;;;;;;;;;;;;;;5055664;28;19917;-69
2022/01/16 16:04:07;;;;;;;;;;;;;;;;;;5058134;28;20013;-68
2022/01/16 16:06:32;;;;;;;;;;;;;;;;;;5058610;28;20412;-68
2022/01/16 16:08:57;;;;;;;;;;;;;;;;;;5056470;28;19928;-68
2022/01/16 16:11:22;;;;;;;;;;;;;;;;;;5054878;28;19955;-68
2022/01/16 16:13:48;;;;;;;;;;;;;;;;;;5057463;28;19920;-68
2022/01/16 16:16:13;;;;;;;;;;;;;;;;;;5059795;28;19966;-68
2022/01/16 16:18:38;;;;;;;;;;;;;;;;;;5058065;28;19920;-68
2022/01/16 16:21:03;;;;;;;;;;;;;;;;;;5061011;28;19941;-68
2022/01/16 16:23:28;;;;;;;;;;;;;;;;;;5059267;28;19919;-68
2022/01/16 16:25:53;;;;;;;;;;;;;;;;;;5060949;28;19920;-68
2022/01/16 16:28:18;;;;;;;;;;;;;;;;;;5060217;28;20296;-68
2022/01/16 16:30:43;;;;;;;;;;;;;;;;;;5061182;28;20494;-68
2022/01/16 16:33:09;;;;;;;;;;;;;;;;;;5059919;28;19966;-68
2022/01/16 16:35:34;;;;;;;;;;;;;;;;;;5060572;28;20289;-68
2022/01/16 16:37:59;;;;;;;;;;;;;;;;;;5061119;28;19932;-69
2022/01/16 16:40:24;;;;;;;;;;;;;;;;;;5058002;28;20412;-69
2022/01/16 16:42:49;;;;;;;;;;;;;;;;;;5064460;28;19928;-69
2022/01/16 16:45:15;;;;;;;;;;;;;;;;;;5053472;28;19923;-69
2022/01/16 16:47:40;;;;;;;;;;;;;;;;;;5064394;28;19916;-69
2022/01/16 16:50:05;;;;;;;;;;;;;;;;;;5063856;28;19924;-69
2022/01/16 16:52:30;;;;;;;;;;;;;;;;;;5064442;28;19942;-69
2022/01/16 16:54:56;;;;;;;;;;;;;;;;;;5051853;28;19921;-68
2022/01/16 16:57:21;;;;;;;;;;;;;;;;;;5064379;28;19919;-68
2022/01/16 16:59:46;;;;;;;;;;;;;;;;;;5061320;28;19920;-68
2022/01/16 17:02:13;;;;;;;;;;;;;;;;;;5063884;28;20273;-68
2022/01/16 17:04:38;;;;;;;;;;;;;;;;;;5062822;28;19912;-68
2022/01/16 17:07:04;;;;;;;;;;;;;;;;;;5064701;28;19915;-68
2022/01/16 17:09:29;;;;;;;;;;;;;;;;;;5052150;28;19913;-68
2022/01/16 17:11:54;;;;;;;;;;;;;;;;;;5062101;28;20548;-68
2022/01/16 17:14:19;;;;;;;;;;;;;;;;;;5053374;28;19913;-68
2022/01/16 17:16:49;;;;;;;;;;;;;;;;;;5063050;28;19909;-68
2022/01/16 17:19:33;;;;;;;;;;;;;;;;;;5064341;28;20024;-67
2022/01/16 17:21:58;;;;;;;;;;;;;;;;;;5062535;28;20566;-68